Aviation Digital Data Service (ADDS)

Output produced by METARs form (1826 UTC 16 August 2018)
found at http://www.aviationweather.gov/adds/metars/
 
DBBB 161800Z 21009KT 9999 FEW013 26/23 Q1014 NOSIG
TAF DBBB 161700Z 1618/1724 22012KT 9999 SCT012 
     PROB30 
     TEMPO 1704/1710 4000 RA BKN010